createdAt,value
2019-05-01T00:00:28.239Z,94.92
2019-05-01T00:01:24.197Z,91.60
2019-05-01T00:02:17.415Z,136.40
2019-05-01T00:03:10.982Z,116.55
2019-05-01T00:04:04.306Z,108.12
2019-05-01T00:04:56.551Z,98.25
2019-05-01T00:05:34.079Z,106.80
2019-05-01T00:06:08.570Z,110.05
2019-05-01T00:06:46.236Z,104.80
2019-05-01T00:07:28.590Z,137.12
2019-05-01T00:08:03.101Z,123.38
2019-05-01T00:08:37.536Z,122.13
2019-05-01T00:09:12.669Z,146.45
2019-05-01T00:09:46.956Z,132.60
2019-05-01T00:10:22.776Z,86.30
2019-05-01T00:10:56.967Z,94.55
2019-05-01T00:11:35.504Z,92.53
2019-05-01T00:12:28.617Z,99.87
2019-05-01T00:13:03.062Z,105.12
2019-05-01T00:13:37.365Z,166.77
2019-05-01T00:14:11.709Z,169.20
2019-05-01T00:14:45.873Z,84.90
2019-05-01T00:15:23.395Z,126.58
2019-05-01T00:15:57.762Z,115.05
2019-05-01T00:16:32.337Z,107.03
2019-05-01T00:17:06.666Z,106.85
2019-05-01T00:17:40.990Z,121.60
2019-05-01T00:18:15.197Z,155.93
2019-05-01T00:18:49.467Z,291.38
2019-05-01T00:19:23.683Z,243.37
2019-05-01T00:19:57.802Z,314.30
2019-05-01T00:20:32.084Z,406.30
2019-05-01T00:21:06.196Z,429.85
2019-05-01T00:21:40.386Z,233.32
2019-05-01T00:22:14.516Z,121.80
2019-05-01T00:22:48.792Z,254.75
2019-05-01T00:23:22.949Z,200.25
2019-05-01T00:23:57.164Z,153.18
2019-05-01T00:24:31.495Z,146.53
2019-05-01T00:25:06.179Z,126.27
2019-05-01T00:25:40.310Z,147.98
2019-05-01T00:26:14.437Z,192.20
2019-05-01T00:26:48.715Z,130.95
2019-05-01T00:27:22.817Z,97.88
2019-05-01T00:27:57.222Z,81.75
2019-05-01T00:28:31.479Z,84.62
2019-05-01T00:29:06.065Z,91.53
2019-05-01T00:29:40.233Z,119.13
2019-05-01T00:30:28.822Z,128.38
2019-05-01T00:30:56.078Z,114.25
2019-05-01T00:31:30.229Z,105.12
2019-05-01T00:32:04.296Z,95.55
2019-05-01T00:32:38.399Z,93.58
2019-05-01T00:33:12.715Z,79.80
2019-05-01T00:33:46.756Z,105.80
2019-05-01T00:34:20.959Z,112.30
2019-05-01T00:34:55.116Z,109.20
2019-05-01T00:35:29.422Z,111.20
2019-05-01T00:36:03.826Z,109.67
2019-05-01T00:36:38.020Z,182.20
2019-05-01T00:37:12.214Z,140.28
2019-05-01T00:37:46.374Z,111.95
2019-05-01T00:38:20.466Z,123.33
2019-05-01T00:38:54.801Z,111.95
2019-05-01T00:39:29.006Z,97.17
2019-05-01T00:40:03.360Z,122.67
2019-05-01T00:40:37.556Z,96.32
2019-05-01T00:41:11.654Z,95.20
2019-05-01T00:41:45.691Z,112.20
2019-05-01T00:42:19.843Z,107.15
2019-05-01T00:42:54.134Z,88.72
2019-05-01T00:43:28.346Z,84.32
2019-05-01T00:44:02.496Z,101.85
2019-05-01T00:44:36.743Z,89.17
2019-05-01T00:45:11.112Z,76.85
2019-05-01T00:45:45.248Z,96.00
2019-05-01T00:46:19.865Z,95.45
2019-05-01T00:46:54.164Z,89.28
2019-05-01T00:47:28.372Z,131.82
2019-05-01T00:48:02.487Z,202.97
2019-05-01T00:48:36.767Z,111.45
2019-05-01T00:49:11.195Z,100.62
2019-05-01T00:49:45.479Z,99.15
2019-05-01T00:50:19.746Z,149.65
2019-05-01T00:50:54.036Z,125.53
2019-05-01T00:51:29.309Z,158.12
2019-05-01T00:52:03.367Z,95.90
2019-05-01T00:52:37.509Z,90.20
2019-05-01T00:53:11.686Z,80.65
2019-05-01T00:53:45.856Z,98.95
2019-05-01T00:54:19.977Z,149.75
2019-05-01T00:55:13.364Z,114.67
2019-05-01T00:56:06.496Z,133.20
2019-05-01T00:56:55.317Z,123.25
2019-05-01T00:57:40.887Z,99.22
2019-05-01T00:58:30.791Z,104.95
2019-05-01T00:59:24.967Z,132.78
2019-05-01T01:00:18.137Z,105.55
2019-05-01T01:01:11.397Z,99.58
2019-05-01T01:02:04.469Z,104.43
2019-05-01T01:02:49.176Z,114.57
2019-05-01T01:03:23.370Z,151.32
2019-05-01T01:03:57.930Z,141.77
2019-05-01T01:04:32.389Z,155.37
2019-05-01T01:05:07.196Z,153.90
2019-05-01T01:05:41.226Z,119.05
2019-05-01T01:06:15.442Z,131.27
2019-05-01T01:06:50.096Z,161.50
2019-05-01T01:07:24.204Z,139.10
2019-05-01T01:07:58.515Z,130.65
2019-05-01T01:08:32.712Z,131.27
2019-05-01T01:09:08.067Z,131.45
2019-05-01T01:09:42.242Z,152.05
2019-05-01T01:10:16.691Z,126.50
2019-05-01T01:10:50.929Z,139.80
2019-05-01T01:11:24.979Z,96.02
2019-05-01T01:11:59.007Z,104.30
2019-05-01T01:12:33.149Z,117.85
2019-05-01T01:13:07.179Z,141.50
2019-05-01T01:13:41.446Z,159.10
2019-05-01T01:14:15.752Z,128.97
2019-05-01T01:14:49.878Z,118.77
2019-05-01T01:15:23.999Z,117.15
2019-05-01T01:15:58.252Z,108.52
2019-05-01T01:16:32.424Z,115.42
2019-05-01T01:17:06.545Z,136.50
2019-05-01T01:17:40.590Z,112.42
2019-05-01T01:18:14.848Z,116.47
2019-05-01T01:18:49.139Z,140.00
2019-05-01T01:19:23.565Z,174.05
2019-05-01T01:19:57.873Z,260.90
2019-05-01T01:20:32.146Z,275.30
2019-05-01T01:21:06.347Z,126.38
2019-05-01T01:21:40.475Z,114.30
2019-05-01T01:22:14.758Z,109.00
2019-05-01T01:22:49.040Z,152.20
2019-05-01T01:23:23.437Z,123.90
2019-05-01T01:23:57.999Z,134.93
2019-05-01T01:24:32.377Z,201.20
2019-05-01T01:25:07.441Z,232.50
2019-05-01T01:25:41.732Z,407.55
2019-05-01T01:26:16.266Z,397.95
2019-05-01T01:26:50.726Z,160.28
2019-05-01T01:27:25.546Z,202.25
2019-05-01T01:27:59.669Z,206.35
2019-05-01T01:28:34.075Z,366.17
2019-05-01T01:29:08.475Z,590.05
2019-05-01T01:29:42.709Z,455.93
2019-05-01T01:30:17.655Z,388.62
2019-05-01T01:30:56.491Z,745.48
2019-05-01T01:31:27.995Z,839.02
2019-05-01T01:32:02.181Z,575.08
2019-05-01T01:32:38.920Z,863.60
2019-05-01T01:33:13.275Z,480.93
2019-05-01T01:33:47.406Z,547.05
2019-05-01T01:34:21.514Z,469.47
2019-05-01T01:34:55.811Z,819.43
2019-05-01T01:35:29.997Z,163.40
2019-05-01T01:36:04.532Z,170.07
2019-05-01T01:36:38.764Z,229.05
2019-05-01T01:37:12.977Z,156.55
2019-05-01T01:37:47.246Z,144.70
2019-05-01T01:38:21.465Z,119.13
2019-05-01T01:38:55.909Z,173.47
2019-05-01T01:39:30.662Z,376.75
2019-05-01T01:40:05.426Z,466.60
2019-05-01T01:40:40.125Z,373.48
2019-05-01T01:41:14.691Z,292.70
2019-05-01T01:41:50.302Z,281.13
2019-05-01T01:42:24.605Z,336.82
2019-05-01T01:43:18.627Z,286.45
2019-05-01T01:44:12.297Z,139.88
2019-05-01T01:44:52.979Z,270.20
2019-05-01T01:45:41.116Z,156.57
2019-05-01T01:46:16.782Z,170.47
2019-05-01T01:46:51.918Z,141.97
2019-05-01T01:47:26.599Z,305.57
2019-05-01T01:48:20.162Z,728.58
2019-05-01T01:48:54.854Z,209.55
2019-05-01T01:49:28.957Z,122.85
2019-05-01T01:50:03.239Z,493.55
2019-05-01T01:50:38.459Z,592.03
2019-05-01T01:51:13.106Z,100.25
2019-05-01T01:51:47.394Z,502.52
2019-05-01T01:52:22.538Z,91.12
2019-05-01T01:52:57.066Z,73.20
2019-05-01T01:53:31.939Z,339.45
2019-05-01T01:54:06.553Z,343.60
2019-05-01T01:54:40.736Z,185.05
2019-05-01T01:55:15.202Z,570.50
2019-05-01T01:55:50.567Z,381.00
2019-05-01T01:56:24.824Z,586.90
2019-05-01T01:56:59.160Z,475.53
2019-05-01T01:57:33.479Z,82.85
2019-05-01T01:58:09.271Z,448.55
2019-05-01T01:58:43.684Z,580.35
2019-05-01T01:59:18.584Z,478.15
2019-05-01T01:59:53.526Z,417.87
2019-05-01T02:00:33.784Z,420.68
2019-05-01T02:01:20.665Z,162.50
2019-05-01T02:02:07.826Z,471.55
2019-05-01T02:02:48.334Z,585.73
2019-05-01T02:03:23.334Z,312.27
2019-05-01T02:04:02.008Z,158.42
2019-05-01T02:04:55.495Z,217.50
2019-05-01T02:05:33.478Z,271.52
2019-05-01T02:06:07.886Z,255.15
2019-05-01T02:06:41.928Z,111.95
2019-05-01T02:07:16.337Z,227.35
2019-05-01T02:07:51.275Z,170.20
2019-05-01T02:08:25.650Z,274.05
2019-05-01T02:08:59.884Z,242.28
2019-05-01T02:09:34.209Z,218.33
2019-05-01T02:10:09.197Z,329.73
2019-05-01T02:10:43.602Z,321.45
2019-05-01T02:11:18.086Z,323.00
2019-05-01T02:11:52.582Z,303.95
2019-05-01T02:12:26.899Z,512.12
2019-05-01T02:13:01.226Z,461.45
2019-05-01T02:13:35.589Z,305.48
2019-05-01T02:14:09.992Z,232.80
2019-05-01T02:14:44.146Z,293.30
2019-05-01T02:15:18.797Z,317.35
2019-05-01T02:15:53.286Z,323.75
2019-05-01T02:16:27.789Z,265.20
2019-05-01T02:17:02.065Z,265.85
2019-05-01T02:17:36.371Z,233.15
2019-05-01T02:18:10.719Z,86.90
2019-05-01T02:18:44.940Z,111.92
2019-05-01T02:19:19.252Z,136.35
2019-05-01T02:19:53.461Z,56.13
2019-05-01T02:20:27.644Z,47.60
2019-05-01T02:21:01.828Z,56.92
2019-05-01T02:21:35.947Z,87.57
2019-05-01T02:22:10.149Z,167.43
2019-05-01T02:22:44.554Z,231.13
2019-05-01T02:23:18.846Z,156.12
2019-05-01T02:23:53.172Z,221.55
2019-05-01T02:24:27.257Z,192.43
2019-05-01T02:25:01.577Z,309.40
2019-05-01T02:25:38.125Z,262.48
2019-05-01T02:26:13.254Z,75.67
2019-05-01T02:26:49.751Z,115.62
2019-05-01T02:27:34.438Z,181.50
2019-05-01T02:28:27.777Z,76.75
2019-05-01T02:29:09.681Z,33.20
2019-05-01T02:29:48.674Z,173.53
2019-05-01T02:30:23.833Z,188.52
2019-05-01T02:31:27.395Z,261.12
2019-05-01T02:31:55.656Z,229.18
2019-05-01T02:32:30.525Z,201.52
2019-05-01T02:33:05.127Z,225.72
2019-05-01T02:33:40.836Z,294.45
2019-05-01T02:34:16.461Z,113.25
2019-05-01T02:34:51.336Z,110.48
2019-05-01T02:35:30.212Z,112.20
2019-05-01T02:36:03.673Z,238.20
2019-05-01T02:36:38.560Z,146.65
2019-05-01T02:37:15.757Z,117.47
2019-05-01T02:37:50.886Z,107.17
2019-05-01T02:38:25.380Z,108.50
2019-05-01T02:39:01.079Z,114.77
2019-05-01T02:39:36.739Z,145.15
2019-05-01T02:40:40.280Z,121.67
2019-05-01T02:41:16.900Z,103.15
2019-05-01T02:41:53.056Z,116.30
2019-05-01T02:42:30.665Z,127.92
2019-05-01T02:43:05.586Z,109.42
2019-05-01T02:43:43.261Z,111.37
2019-05-01T02:44:25.619Z,105.55
2019-05-01T02:45:02.834Z,118.70
2019-05-01T02:45:38.526Z,85.47
2019-05-01T02:46:15.324Z,96.50
2019-05-01T02:46:51.818Z,83.50
2019-05-01T02:47:29.587Z,90.42
2019-05-01T02:48:04.589Z,93.65
2019-05-01T02:48:42.159Z,106.85
2019-05-01T02:49:24.592Z,173.02
2019-05-01T02:50:18.592Z,176.57
2019-05-01T02:50:56.216Z,257.15
2019-05-01T02:51:30.627Z,216.88
2019-05-01T02:52:07.356Z,307.05
2019-05-01T02:52:43.220Z,232.85
2019-05-01T02:53:19.997Z,163.92
2019-05-01T02:53:54.856Z,105.83
2019-05-01T02:54:29.651Z,68.10
2019-05-01T02:55:07.881Z,51.42
2019-05-01T02:55:47.753Z,54.83
2019-05-01T02:56:41.677Z,64.97
2019-05-01T02:57:19.057Z,78.78
2019-05-01T02:57:53.577Z,95.47
2019-05-01T02:58:27.955Z,73.50
2019-05-01T02:59:05.517Z,85.20
2019-05-01T02:59:42.261Z,66.47
2019-05-01T03:00:18.180Z,85.17
2019-05-01T03:00:52.587Z,144.25
2019-05-01T03:01:44.365Z,160.52
2019-05-01T03:02:03.830Z,73.12
2019-05-01T03:02:39.608Z,370.95
2019-05-01T03:03:13.927Z,352.52
2019-05-01T03:03:49.547Z,597.92
2019-05-01T03:04:24.109Z,475.80
2019-05-01T03:04:59.221Z,654.72
2019-05-01T03:05:33.632Z,563.00
2019-05-01T03:06:07.887Z,139.92
2019-05-01T03:06:42.067Z,162.00
2019-05-01T03:07:17.889Z,112.35
2019-05-01T03:07:52.677Z,71.00
2019-05-01T03:08:27.153Z,172.25
2019-05-01T03:09:06.338Z,191.25
2019-05-01T03:09:41.518Z,129.63
2019-05-01T03:10:16.488Z,245.67
2019-05-01T03:10:51.617Z,255.00
2019-05-01T03:11:26.467Z,185.10
2019-05-01T03:12:02.612Z,122.78
2019-05-01T03:12:40.587Z,98.87
2019-05-01T03:13:15.168Z,71.28
2019-05-01T03:13:51.207Z,120.47
2019-05-01T03:14:28.347Z,108.15
2019-05-01T03:15:04.669Z,109.10
2019-05-01T03:15:39.238Z,95.38
2019-05-01T03:16:13.997Z,105.30
2019-05-01T03:16:50.831Z,82.57
2019-05-01T03:17:44.059Z,121.77
2019-05-01T03:18:31.798Z,92.55
2019-05-01T03:19:10.906Z,141.90
2019-05-01T03:20:04.310Z,152.70
2019-05-01T03:20:58.570Z,116.80
2019-05-01T03:21:39.508Z,106.85
2019-05-01T03:22:33.610Z,113.17
2019-05-01T03:23:26.937Z,135.15
2019-05-01T03:24:05.978Z,120.35
2019-05-01T03:24:40.200Z,166.28
2019-05-01T03:25:14.889Z,103.60
2019-05-01T03:25:49.350Z,131.52
2019-05-01T03:26:23.782Z,130.70
2019-05-01T03:26:59.205Z,93.33
2019-05-01T03:27:33.964Z,105.87
2019-05-01T03:28:08.589Z,137.75
2019-05-01T03:28:43.060Z,279.85
2019-05-01T03:29:17.463Z,171.28
2019-05-01T03:29:51.652Z,111.55
2019-05-01T03:30:25.986Z,104.97
2019-05-01T03:31:00.240Z,150.62
2019-05-01T03:31:34.407Z,127.22
2019-05-01T03:32:19.271Z,147.32
2019-05-01T03:32:44.529Z,136.00
2019-05-01T03:33:19.027Z,131.67
2019-05-01T03:33:53.616Z,293.63
2019-05-01T03:34:29.153Z,396.85
2019-05-01T03:35:03.657Z,442.03
2019-05-01T03:35:37.917Z,253.70
2019-05-01T03:36:12.386Z,135.35
2019-05-01T03:36:46.725Z,167.87
2019-05-01T03:37:21.266Z,109.32
2019-05-01T03:37:55.710Z,196.18
2019-05-01T03:38:30.997Z,305.45
2019-05-01T03:39:06.216Z,211.50
2019-05-01T03:39:41.008Z,144.00
2019-05-01T03:40:15.728Z,173.38
2019-05-01T03:40:50.426Z,247.37
2019-05-01T03:41:25.003Z,384.75
2019-05-01T03:41:59.711Z,299.50
2019-05-01T03:42:34.007Z,287.15
2019-05-01T03:43:08.518Z,112.40
2019-05-01T03:43:42.823Z,232.32
2019-05-01T03:44:17.771Z,240.57
2019-05-01T03:44:51.946Z,93.85
2019-05-01T03:45:26.756Z,262.68
2019-05-01T03:46:00.935Z,97.75
2019-05-01T03:46:35.770Z,100.85
2019-05-01T03:47:10.130Z,128.68
2019-05-01T03:47:44.760Z,189.37
2019-05-01T03:48:19.695Z,91.65
2019-05-01T03:48:54.122Z,108.17
2019-05-01T03:49:28.380Z,140.00
2019-05-01T03:50:02.643Z,115.05
2019-05-01T03:50:37.123Z,248.18
2019-05-01T03:51:11.636Z,156.85
2019-05-01T03:51:46.013Z,107.97
2019-05-01T03:52:20.371Z,81.35
2019-05-01T03:52:54.750Z,73.50
2019-05-01T03:53:29.621Z,95.67
2019-05-01T03:54:04.119Z,109.25
2019-05-01T03:54:38.414Z,79.53
2019-05-01T03:55:12.782Z,95.62
2019-05-01T03:55:47.468Z,80.47
2019-05-01T03:56:21.736Z,87.12
2019-05-01T03:56:55.950Z,83.50
2019-05-01T03:57:30.301Z,99.85
2019-05-01T03:58:05.110Z,91.20
2019-05-01T03:58:39.987Z,122.33
2019-05-01T03:59:14.435Z,105.22
2019-05-01T03:59:49.036Z,133.85
2019-05-01T04:00:34.802Z,142.77
2019-05-01T04:01:24.689Z,140.55
2019-05-01T04:02:32.177Z,105.03
2019-05-01T04:03:13.793Z,106.43
2019-05-01T04:03:51.376Z,92.00
2019-05-01T04:04:28.069Z,98.37
2019-05-01T04:05:02.463Z,121.45
2019-05-01T04:05:37.007Z,107.65
2019-05-01T04:06:11.555Z,91.80
2019-05-01T04:06:46.102Z,92.62
2019-05-01T04:07:20.685Z,71.87
2019-05-01T04:07:54.870Z,93.30
2019-05-01T04:08:36.683Z,79.42
2019-05-01T04:09:10.749Z,76.33
2019-05-01T04:09:45.058Z,106.58
2019-05-01T04:10:19.780Z,84.65
2019-05-01T04:10:55.666Z,91.30
2019-05-01T04:11:29.925Z,76.77
2019-05-01T04:12:04.612Z,87.05
2019-05-01T04:12:38.996Z,87.25
2019-05-01T04:13:13.877Z,145.80
2019-05-01T04:13:48.270Z,136.25
2019-05-01T04:14:22.849Z,99.80
2019-05-01T04:14:57.578Z,87.15
2019-05-01T04:15:32.039Z,82.85
2019-05-01T04:16:06.625Z,77.53
2019-05-01T04:16:42.820Z,72.37
2019-05-01T04:17:23.557Z,71.80
2019-05-01T04:17:59.558Z,71.65
2019-05-01T04:18:34.606Z,70.65
2019-05-01T04:19:08.780Z,66.85
2019-05-01T04:19:43.417Z,72.65
2019-05-01T04:20:18.025Z,92.88
2019-05-01T04:20:52.468Z,72.67
2019-05-01T04:21:30.695Z,80.70
2019-05-01T04:22:10.368Z,79.97
2019-05-01T04:22:46.309Z,86.47
2019-05-01T04:23:20.801Z,69.95
2019-05-01T04:23:55.181Z,71.92
2019-05-01T04:24:29.848Z,64.22
2019-05-01T04:25:04.117Z,52.03
2019-05-01T04:25:38.675Z,60.75
2019-05-01T04:26:13.425Z,81.12
2019-05-01T04:26:47.605Z,57.90
2019-05-01T04:27:30.436Z,56.23
2019-05-01T04:28:23.798Z,73.33
2019-05-01T04:29:04.381Z,55.70
2019-05-01T04:29:45.281Z,62.70
2019-05-01T04:30:25.330Z,64.75
2019-05-01T04:31:08.465Z,58.10
2019-05-01T04:32:02.108Z,60.10
2019-05-01T04:32:50.951Z,53.87
2019-05-01T04:33:13.489Z,56.83
2019-05-01T04:33:48.385Z,51.60
2019-05-01T04:34:28.397Z,43.85
2019-05-01T04:35:22.016Z,57.75
2019-05-01T04:36:01.652Z,50.20
2019-05-01T04:36:38.688Z,49.93
2019-05-01T04:37:13.813Z,48.87
2019-05-01T04:37:48.058Z,48.10
2019-05-01T04:38:22.741Z,52.15
2019-05-01T04:38:57.147Z,49.75
2019-05-01T04:39:31.546Z,43.75
2019-05-01T04:40:06.619Z,48.28
2019-05-01T04:40:41.097Z,37.73
2019-05-01T04:41:15.576Z,45.10
2019-05-01T04:41:49.922Z,45.08
2019-05-01T04:42:24.572Z,41.28
2019-05-01T04:42:58.996Z,42.73
2019-05-01T04:43:33.595Z,39.63
2019-05-01T04:44:08.203Z,49.88
2019-05-01T04:44:42.751Z,36.05
2019-05-01T04:45:17.991Z,41.53
2019-05-01T04:45:52.447Z,37.20
2019-05-01T04:46:27.022Z,41.60
2019-05-01T04:47:02.262Z,43.25
2019-05-01T04:47:36.820Z,38.83
2019-05-01T04:48:11.120Z,42.65
2019-05-01T04:48:45.532Z,46.80
2019-05-01T04:49:19.988Z,36.68
2019-05-01T04:49:54.199Z,39.53
2019-05-01T04:50:28.910Z,38.25
2019-05-01T04:51:03.292Z,40.10
2019-05-01T04:51:37.772Z,38.45
2019-05-01T04:52:12.389Z,41.45
2019-05-01T04:52:46.882Z,42.90
2019-05-01T04:53:21.372Z,40.92
2019-05-01T04:53:55.975Z,40.80
2019-05-01T04:54:30.407Z,37.17
2019-05-01T04:55:05.019Z,39.00
2019-05-01T04:55:40.040Z,47.23
2019-05-01T04:56:14.809Z,37.48
2019-05-01T04:56:49.209Z,37.73
2019-05-01T04:57:23.775Z,29.50
2019-05-01T04:57:58.241Z,34.60
2019-05-01T04:58:32.711Z,35.75
2019-05-01T04:59:07.519Z,33.45
2019-05-01T04:59:41.973Z,36.45
2019-05-01T05:00:16.381Z,37.78
2019-05-01T05:00:50.747Z,42.40
2019-05-01T05:01:28.937Z,42.10
2019-05-01T05:02:05.216Z,31.68
2019-05-01T05:02:44.768Z,27.98
2019-05-01T05:03:20.058Z,28.15
2019-05-01T05:03:55.217Z,28.45
2019-05-01T05:04:30.477Z,29.50
2019-05-01T05:05:05.644Z,30.20
2019-05-01T05:05:40.070Z,25.68
2019-05-01T05:06:15.277Z,26.35
2019-05-01T05:06:49.708Z,29.48
2019-05-01T05:07:24.135Z,29.67
2019-05-01T05:07:58.710Z,24.15
2019-05-01T05:08:33.117Z,28.02
2019-05-01T05:09:07.352Z,28.98
2019-05-01T05:09:46.581Z,27.17
2019-05-01T05:10:20.945Z,25.37
2019-05-01T05:10:57.205Z,21.65
2019-05-01T05:11:47.518Z,26.20
2019-05-01T05:12:28.976Z,22.35
2019-05-01T05:13:22.231Z,26.97
2019-05-01T05:14:15.936Z,23.32
2019-05-01T05:14:55.282Z,26.17
2019-05-01T05:15:49.076Z,28.50
2019-05-01T05:16:42.620Z,23.75
2019-05-01T05:17:20.455Z,26.52
2019-05-01T05:17:54.884Z,27.25
2019-05-01T05:18:29.231Z,21.82
2019-05-01T05:19:03.489Z,26.48
2019-05-01T05:19:37.979Z,19.37
2019-05-01T05:20:12.252Z,21.85
2019-05-01T05:20:46.533Z,23.05
2019-05-01T05:21:21.052Z,20.77
2019-05-01T05:21:55.457Z,24.87
2019-05-01T05:22:30.377Z,21.52
2019-05-01T05:23:05.174Z,22.90
2019-05-01T05:23:39.576Z,25.30
2019-05-01T05:24:14.036Z,18.75
2019-05-01T05:24:48.526Z,21.52
2019-05-01T05:25:22.996Z,22.62
2019-05-01T05:25:57.297Z,18.60
2019-05-01T05:26:32.054Z,17.27
2019-05-01T05:27:07.154Z,21.37
2019-05-01T05:27:41.869Z,18.70
2019-05-01T05:28:16.613Z,16.75
2019-05-01T05:28:51.420Z,17.05
2019-05-01T05:29:26.579Z,19.65
2019-05-01T05:30:01.151Z,18.82
2019-05-01T05:30:36.506Z,25.00
2019-05-01T05:31:12.617Z,22.45
2019-05-01T05:31:47.806Z,20.80
2019-05-01T05:32:23.237Z,16.35
2019-05-01T05:32:59.141Z,21.90
2019-05-01T05:33:36.106Z,17.57
2019-05-01T05:34:11.751Z,20.20
2019-05-01T05:34:47.559Z,23.45
2019-05-01T05:35:24.557Z,16.75
2019-05-01T05:35:59.523Z,16.42
2019-05-01T05:36:36.240Z,16.73
2019-05-01T05:37:17.879Z,13.78
2019-05-01T05:38:13.514Z,22.55
2019-05-01T05:38:57.729Z,19.35
2019-05-01T05:39:40.863Z,17.25
2019-05-01T05:40:16.818Z,14.80
2019-05-01T05:40:51.852Z,16.30
2019-05-01T05:41:26.621Z,18.20
2019-05-01T05:42:02.102Z,15.30
2019-05-01T05:42:37.119Z,17.17
2019-05-01T05:43:11.509Z,15.45
2019-05-01T05:43:45.886Z,13.78
2019-05-01T05:44:20.568Z,14.85
2019-05-01T05:44:54.910Z,16.97
2019-05-01T05:45:29.136Z,14.05
2019-05-01T05:46:04.040Z,12.80
2019-05-01T05:46:38.506Z,14.60
2019-05-01T05:47:15.827Z,18.15
2019-05-01T05:47:50.177Z,14.13
2019-05-01T05:48:24.822Z,14.45
2019-05-01T05:48:59.505Z,16.10
2019-05-01T05:49:34.189Z,13.15
2019-05-01T05:50:09.609Z,16.42
2019-05-01T05:50:56.586Z,15.63
2019-05-01T05:51:42.860Z,13.90
2019-05-01T05:52:37.078Z,10.30
2019-05-01T05:53:15.278Z,17.20
2019-05-01T05:53:53.245Z,15.32
2019-05-01T05:54:49.448Z,14.80
2019-05-01T05:55:36.117Z,12.20
2019-05-01T05:56:14.842Z,12.78
2019-05-01T05:56:53.688Z,15.10
2019-05-01T05:57:54.785Z,16.25
2019-05-01T05:58:39.026Z,17.45
2019-05-01T05:59:18.938Z,14.95
2019-05-01T05:59:57.328Z,15.65
2019-05-01T06:00:53.706Z,17.05
2019-05-01T06:01:49.180Z,21.60
2019-05-01T06:02:33.187Z,14.43
2019-05-01T06:03:31.219Z,16.77
2019-05-01T06:04:27.216Z,29.25
2019-05-01T06:05:22.483Z,22.58
2019-05-01T06:06:06.947Z,15.78
2019-05-01T06:07:02.580Z,16.82
2019-05-01T06:07:44.567Z,14.63
2019-05-01T06:08:23.697Z,14.25
2019-05-01T06:09:00.806Z,16.60
2019-05-01T06:09:55.598Z,19.85
2019-05-01T06:10:42.981Z,13.95
2019-05-01T06:11:39.312Z,17.60
2019-05-01T06:12:34.017Z,17.27
2019-05-01T06:13:17.951Z,16.17
2019-05-01T06:14:11.152Z,15.65
2019-05-01T06:15:07.665Z,17.87
2019-05-01T06:15:50.274Z,17.30
2019-05-01T06:16:40.414Z,13.75
2019-05-01T06:17:23.792Z,17.27
2019-05-01T06:18:05.934Z,13.65
2019-05-01T06:18:59.546Z,15.43
2019-05-01T06:19:39.514Z,17.70
2019-05-01T06:20:32.967Z,13.35
2019-05-01T06:21:14.495Z,17.30
2019-05-01T06:22:10.317Z,14.87
2019-05-01T06:23:05.707Z,13.03
2019-05-01T06:24:06.283Z,15.08
2019-05-01T06:24:40.658Z,14.28
2019-05-01T06:25:22.729Z,20.77
2019-05-01T06:26:02.526Z,19.20
2019-05-01T06:26:39.518Z,22.35
2019-05-01T06:27:15.084Z,15.00
2019-05-01T06:27:50.513Z,12.23
2019-05-01T06:28:26.327Z,11.65
2019-05-01T06:29:03.211Z,14.38
2019-05-01T06:29:37.798Z,14.35
2019-05-01T06:30:12.620Z,16.55
2019-05-01T06:30:48.855Z,13.95
2019-05-01T06:31:24.621Z,15.00
2019-05-01T06:32:00.081Z,14.20
2019-05-01T06:32:34.798Z,14.03
2019-05-01T06:33:09.738Z,11.12
2019-05-01T06:33:48.643Z,12.13
2019-05-01T06:34:23.919Z,16.62
2019-05-01T06:34:58.446Z,12.82
2019-05-01T06:35:38.261Z,16.57
2019-05-01T06:36:13.206Z,16.23
2019-05-01T06:36:49.612Z,12.93
2019-05-01T06:37:25.294Z,11.80
2019-05-01T06:38:02.250Z,13.62
2019-05-01T06:38:37.800Z,16.73
2019-05-01T06:39:13.329Z,13.48
2019-05-01T06:39:49.836Z,14.05
2019-05-01T06:40:39.302Z,13.53
2019-05-01T06:41:14.277Z,12.93
2019-05-01T06:41:48.933Z,15.20
2019-05-01T06:42:23.335Z,11.10
2019-05-01T06:42:57.742Z,13.03
2019-05-01T06:43:51.054Z,15.70
2019-05-01T06:44:44.831Z,13.75
2019-05-01T06:45:20.885Z,13.53
2019-05-01T06:46:14.560Z,14.25
2019-05-01T06:47:08.380Z,14.55
2019-05-01T06:47:53.487Z,18.75
2019-05-01T06:48:28.338Z,11.38
2019-05-01T06:49:24.386Z,12.78
2019-05-01T06:50:20.150Z,13.90
2019-05-01T06:50:57.917Z,16.40
2019-05-01T06:51:53.227Z,11.60
2019-05-01T06:52:29.333Z,9.98
2019-05-01T06:53:06.090Z,11.18
2019-05-01T06:53:41.240Z,14.45
2019-05-01T06:54:17.667Z,11.10
2019-05-01T06:54:53.631Z,11.30
2019-05-01T06:55:28.963Z,15.63
2019-05-01T06:56:03.373Z,12.93
2019-05-01T06:56:38.440Z,12.95
2019-05-01T06:57:12.964Z,14.45
2019-05-01T06:57:47.759Z,14.25
2019-05-01T06:58:23.297Z,11.00
2019-05-01T06:58:57.825Z,13.83
2019-05-01T06:59:34.065Z,13.85
2019-05-01T07:00:13.983Z,12.55
2019-05-01T07:00:48.646Z,13.75
2019-05-01T07:01:23.987Z,15.63
2019-05-01T07:02:00.235Z,14.03
2019-05-01T07:02:35.459Z,12.10
2019-05-01T07:03:11.729Z,10.10
2019-05-01T07:04:02.959Z,14.40
2019-05-01T07:04:22.708Z,14.20
2019-05-01T07:04:57.078Z,13.00
2019-05-01T07:05:32.090Z,11.55
2019-05-01T07:06:14.182Z,13.88
2019-05-01T07:06:42.657Z,10.35
2019-05-01T07:07:25.228Z,12.30
2019-05-01T07:07:55.844Z,15.48
2019-05-01T07:08:34.312Z,12.58
2019-05-01T07:09:11.970Z,11.33
2019-05-01T07:09:49.324Z,12.00
2019-05-01T07:10:30.697Z,17.62
2019-05-01T07:10:57.036Z,13.48
2019-05-01T07:11:31.580Z,10.48
2019-05-01T07:12:08.437Z,13.28
2019-05-01T07:12:42.775Z,11.75
2019-05-01T07:13:17.143Z,15.50
2019-05-01T07:13:51.696Z,13.00
2019-05-01T07:14:26.514Z,12.75
2019-05-01T07:15:01.969Z,14.30
2019-05-01T07:15:36.358Z,13.62
2019-05-01T07:16:10.554Z,12.10
2019-05-01T07:16:44.977Z,10.75
2019-05-01T07:17:19.419Z,11.83
2019-05-01T07:17:54.111Z,9.75
2019-05-01T07:18:29.181Z,10.85
2019-05-01T07:19:06.041Z,14.10
2019-05-01T07:20:00.454Z,14.35
2019-05-01T07:20:53.282Z,14.28
2019-05-01T07:21:32.389Z,12.78
2019-05-01T07:22:06.344Z,12.30
2019-05-01T07:22:42.187Z,11.00
2019-05-01T07:23:18.742Z,12.98
2019-05-01T07:23:53.450Z,12.63
2019-05-01T07:24:29.094Z,10.28
2019-05-01T07:25:05.249Z,10.10
2019-05-01T07:25:40.642Z,14.28
2019-05-01T07:26:15.221Z,9.23
2019-05-01T07:26:49.275Z,9.65
2019-05-01T07:27:25.217Z,9.35
2019-05-01T07:27:59.805Z,10.08
2019-05-01T07:28:36.231Z,10.28
2019-05-01T07:29:13.880Z,9.90
2019-05-01T07:29:49.711Z,10.30
2019-05-01T07:30:36.334Z,8.38
2019-05-01T07:31:15.014Z,10.18
2019-05-01T07:31:49.558Z,9.45
2019-05-01T07:32:24.213Z,10.90
2019-05-01T07:32:58.855Z,8.30
2019-05-01T07:33:33.186Z,10.05
2019-05-01T07:34:16.421Z,14.33
2019-05-01T07:34:43.462Z,9.83
2019-05-01T07:35:18.087Z,10.53
2019-05-01T07:35:54.004Z,12.18
2019-05-01T07:36:28.434Z,7.35
2019-05-01T07:37:03.757Z,9.85
2019-05-01T07:37:38.342Z,12.28
2019-05-01T07:38:12.870Z,9.80
2019-05-01T07:38:48.400Z,12.70
2019-05-01T07:39:22.794Z,8.10
2019-05-01T07:39:56.961Z,9.93
2019-05-01T07:40:31.466Z,11.03
2019-05-01T07:41:06.159Z,7.12
2019-05-01T07:41:40.598Z,10.18
2019-05-01T07:42:33.965Z,8.03
2019-05-01T07:43:19.084Z,14.30
2019-05-01T07:44:11.156Z,10.28
2019-05-01T07:44:46.967Z,10.63
2019-05-01T07:45:33.708Z,7.87
2019-05-01T07:46:27.267Z,10.10
2019-05-01T07:47:15.804Z,7.65
2019-05-01T07:47:50.808Z,7.58
2019-05-01T07:48:36.207Z,7.47
2019-05-01T07:49:13.068Z,10.43
2019-05-01T07:49:54.913Z,7.45
2019-05-01T07:50:32.648Z,10.05
2019-05-01T07:51:08.825Z,9.20
2019-05-01T07:52:02.914Z,9.38
2019-05-01T07:52:37.440Z,9.80
2019-05-01T07:53:11.816Z,12.88
2019-05-01T07:53:46.789Z,9.23
2019-05-01T07:54:22.767Z,9.73
2019-05-01T07:54:57.922Z,10.63
2019-05-01T07:55:38.346Z,11.28
2019-05-01T07:56:12.857Z,11.08
2019-05-01T07:56:47.585Z,7.97
2019-05-01T07:57:25.138Z,6.87